Time,TemperatureF,DewpointF,PressureIn,WindDirection,WindDirectionDegrees,WindSpeedMPH,WindSpeedGustMPH,Humidity,HourlyPrecipIn,Conditions,Clouds,dailyrainin,SoftwareType,DateUTC
2013-06-08 00:00:00,68.0,66.0,29.53,South,182,0.0,10.0,94,-99.99,,,-99.99,,2013-06-08 04:00:00,
2013-06-08 00:23:00,68.0,66.0,29.53,South,182,0.0,10.0,94,-99.99,,,-99.99,,2013-06-08 04:23:00,
2013-06-08 00:33:00,68.0,66.0,29.53,South,182,0.0,10.0,94,-99.99,,,-99.99,,2013-06-08 04:33:00,
2013-06-08 00:42:00,68.0,66.0,29.53,South,182,0.0,10.0,94,-99.99,,,-99.99,,2013-06-08 04:42:00,
2013-06-08 00:53:00,68.0,66.0,29.53,South,182,0.0,10.0,94,-99.99,,,-99.99,,2013-06-08 04:53:00,
2013-06-08 01:00:00,64.0,62.0,29.53,NW,317,4.0,11.0,94,-99.99,,,-99.99,,2013-06-08 05:00:00,
2013-06-08 01:22:00,64.0,62.0,29.53,NW,317,4.0,11.0,94,-99.99,,,-99.99,,2013-06-08 05:22:00,
2013-06-08 01:32:00,64.0,62.0,29.53,NW,317,4.0,11.0,94,-99.99,,,-99.99,,2013-06-08 05:32:00,
2013-06-08 01:42:00,64.0,62.0,29.53,NW,317,4.0,11.0,94,-99.99,,,-99.99,,2013-06-08 05:42:00,
2013-06-08 01:53:00,64.0,62.0,29.53,NW,317,4.0,11.0,94,-99.99,,,-99.99,,2013-06-08 05:53:00,
2013-06-08 02:00:00,62.0,60.0,29.56,NW,326,5.0,14.0,94,-99.99,,,-99.99,,2013-06-08 06:00:00,
2013-06-08 02:22:00,62.0,60.0,29.56,NW,326,5.0,14.0,94,-99.99,,,-99.99,,2013-06-08 06:22:00,
2013-06-08 02:32:00,62.0,60.0,29.56,NW,326,5.0,14.0,94,-99.99,,,-99.99,,2013-06-08 06:32:00,
2013-06-08 02:42:00,62.0,60.0,29.56,NW,326,5.0,14.0,94,-99.99,,,-99.99,,2013-06-08 06:42:00,
2013-06-08 02:53:00,62.0,60.0,29.56,NW,326,5.0,14.0,94,-99.99,,,-99.99,,2013-06-08 06:53:00,
2013-06-08 03:00:00,61.0,59.0,29.59,WNW,285,12.0,20.0,93,-99.99,,,-99.99,,2013-06-08 07:00:00,
2013-06-08 03:22:00,61.0,59.0,29.59,WNW,285,12.0,20.0,93,-99.99,,,-99.99,,2013-06-08 07:22:00,
2013-06-08 03:32:00,61.0,59.0,29.59,WNW,285,12.0,20.0,93,-99.99,,,-99.99,,2013-06-08 07:32:00,
2013-06-08 03:42:00,61.0,59.0,29.59,WNW,285,12.0,20.0,93,-99.99,,,-99.99,,2013-06-08 07:42:00,
2013-06-08 03:52:00,61.0,59.0,29.59,WNW,285,12.0,20.0,93,-99.99,,,-99.99,,2013-06-08 07:52:00,
2013-06-08 04:00:00,60.0,58.0,29.65,NNW,333,3.0,21.0,92,-99.99,,,-99.99,,2013-06-08 08:00:00,
2013-06-08 04:32:00,60.0,58.0,29.65,NNW,333,3.0,21.0,92,-99.99,,,-99.99,,2013-06-08 08:32:00,
2013-06-08 04:42:00,60.0,58.0,29.65,NNW,333,3.0,21.0,92,-99.99,,,-99.99,,2013-06-08 08:42:00,
2013-06-08 04:53:00,60.0,58.0,29.65,NNW,333,3.0,21.0,92,-99.99,,,-99.99,,2013-06-08 08:53:00,
2013-06-08 05:00:00,59.0,57.0,29.74,West,266,9.0,17.0,91,-99.99,,,-99.99,,2013-06-08 09:00:00,
2013-06-08 05:22:00,59.0,57.0,29.74,West,266,9.0,17.0,91,-99.99,,,-99.99,,2013-06-08 09:22:00,
2013-06-08 05:33:00,59.0,57.0,29.74,West,266,9.0,17.0,91,-99.99,,,-99.99,,2013-06-08 09:33:00,
2013-06-08 05:43:00,59.0,57.0,29.74,West,266,9.0,17.0,91,-99.99,,,-99.99,,2013-06-08 09:43:00,
2013-06-08 05:53:00,59.0,57.0,29.74,West,266,9.0,17.0,91,-99.99,,,-99.99,,2013-06-08 09:53:00,
2013-06-08 06:00:00,60.0,58.0,29.77,West,277,3.0,13.0,92,-99.99,,,-99.99,,2013-06-08 10:00:00,
2013-06-08 06:23:00,60.0,58.0,29.77,West,277,3.0,13.0,92,-99.99,,,-99.99,,2013-06-08 10:23:00,
2013-06-08 06:33:00,60.0,58.0,29.77,West,277,3.0,13.0,92,-99.99,,,-99.99,,2013-06-08 10:33:00,
2013-06-08 06:43:00,60.0,58.0,29.77,West,277,3.0,13.0,92,-99.99,,,-99.99,,2013-06-08 10:43:00,
2013-06-08 06:53:00,60.0,58.0,29.77,West,277,3.0,13.0,92,-99.99,,,-99.99,,2013-06-08 10:53:00,
2013-06-08 07:00:00,64.0,60.0,29.83,SW,214,5.0,11.0,87,-99.99,,,-99.99,,2013-06-08 11:00:00,
2013-06-08 07:32:00,64.0,60.0,29.83,SW,214,5.0,11.0,87,-99.99,,,-99.99,,2013-06-08 11:32:00,
2013-06-08 07:42:00,64.0,60.0,29.83,SW,214,5.0,11.0,87,-99.99,,,-99.99,,2013-06-08 11:42:00,
2013-06-08 07:52:00,64.0,60.0,29.83,SW,214,5.0,11.0,87,-99.99,,,-99.99,,2013-06-08 11:52:00,
2013-06-08 08:00:00,67.0,61.0,29.85,WSW,253,6.0,11.0,82,-99.99,,,-99.99,,2013-06-08 12:00:00,
2013-06-08 08:22:00,67.0,61.0,29.85,WSW,253,6.0,11.0,82,-99.99,,,-99.99,,2013-06-08 12:22:00,
2013-06-08 08:33:00,67.0,61.0,29.85,WSW,253,6.0,11.0,82,-99.99,,,-99.99,,2013-06-08 12:33:00,
2013-06-08 08:42:00,67.0,61.0,29.85,WSW,253,6.0,11.0,82,-99.99,,,-99.99,,2013-06-08 12:42:00,
2013-06-08 08:52:00,67.0,61.0,29.85,WSW,253,6.0,11.0,82,-99.99,,,-99.99,,2013-06-08 12:52:00,
2013-06-08 09:00:00,68.0,61.0,29.88,WNW,289,4.0,13.0,78,-99.99,,,-99.99,,2013-06-08 13:00:00,
2013-06-08 09:22:00,68.0,61.0,29.88,WNW,289,4.0,13.0,78,-99.99,,,-99.99,,2013-06-08 13:22:00,
2013-06-08 09:32:00,68.0,61.0,29.88,WNW,289,4.0,13.0,78,-99.99,,,-99.99,,2013-06-08 13:32:00,
2013-06-08 09:42:00,68.0,61.0,29.88,WNW,289,4.0,13.0,78,-99.99,,,-99.99,,2013-06-08 13:42:00,
2013-06-08 09:53:00,68.0,61.0,29.88,WNW,289,4.0,13.0,78,-99.99,,,-99.99,,2013-06-08 13:53:00,
2013-06-08 10:00:00,71.0,62.0,29.88,NW,309,10.0,12.0,75,-99.99,,,-99.99,,2013-06-08 14:00:00,
2013-06-08 10:22:00,71.0,62.0,29.88,NW,309,10.0,12.0,75,-99.99,,,-99.99,,2013-06-08 14:22:00,
2013-06-08 10:32:00,71.0,62.0,29.88,NW,309,10.0,12.0,75,-99.99,,,-99.99,,2013-06-08 14:32:00,
2013-06-08 10:42:00,71.0,62.0,29.88,NW,309,10.0,12.0,75,-99.99,,,-99.99,,2013-06-08 14:42:00,
2013-06-08 10:52:00,71.0,62.0,29.88,NW,309,10.0,12.0,75,-99.99,,,-99.99,,2013-06-08 14:52:00,
2013-06-08 11:00:00,72.0,64.0,29.91,NW,322,0.0,11.0,74,-99.99,,,-99.99,,2013-06-08 15:00:00,
2013-06-08 11:33:00,72.0,64.0,29.91,NW,322,0.0,11.0,74,-99.99,,,-99.99,,2013-06-08 15:33:00,
2013-06-08 11:43:00,72.0,64.0,29.91,NW,322,0.0,11.0,74,-99.99,,,-99.99,,2013-06-08 15:43:00,
2013-06-08 11:53:00,72.0,64.0,29.91,NW,322,0.0,11.0,74,-99.99,,,-99.99,,2013-06-08 15:53:00,
2013-06-08 12:00:00,73.0,62.0,29.91,WSW,250,4.0,11.0,69,-99.99,,,-99.99,,2013-06-08 16:00:00,
2013-06-08 12:23:00,73.0,62.0,29.91,WSW,250,4.0,11.0,69,-99.99,,,-99.99,,2013-06-08 16:23:00,
2013-06-08 12:33:00,73.0,62.0,29.91,WSW,250,4.0,11.0,69,-99.99,,,-99.99,,2013-06-08 16:33:00,
2013-06-08 12:42:00,73.0,62.0,29.91,WSW,250,4.0,11.0,69,-99.99,,,-99.99,,2013-06-08 16:42:00,
2013-06-08 12:53:00,73.0,62.0,29.91,WSW,250,4.0,11.0,69,-99.99,,,-99.99,,2013-06-08 16:53:00,
2013-06-08 13:00:00,74.0,63.0,29.91,NW,322,3.0,13.0,68,-99.99,,,-99.99,,2013-06-08 17:00:00,
2013-06-08 13:32:00,74.0,63.0,29.91,NW,322,3.0,13.0,68,-99.99,,,-99.99,,2013-06-08 17:32:00,
2013-06-08 13:42:00,74.0,63.0,29.91,NW,322,3.0,13.0,68,-99.99,,,-99.99,,2013-06-08 17:42:00,
2013-06-08 13:52:00,74.0,63.0,29.91,NW,322,3.0,13.0,68,-99.99,,,-99.99,,2013-06-08 17:52:00,
2013-06-08 14:00:00,71.0,65.0,29.91,South,189,0.0,12.0,80,-99.99,,,-99.99,,2013-06-08 18:00:00,
2013-06-08 14:22:00,71.0,65.0,29.91,South,189,0.0,12.0,80,-99.99,,,-99.99,,2013-06-08 18:22:00,
2013-06-08 14:32:00,71.0,65.0,29.91,South,189,0.0,12.0,80,-99.99,,,-99.99,,2013-06-08 18:32:00,
2013-06-08 14:42:00,71.0,65.0,29.91,South,189,0.0,12.0,80,-99.99,,,-99.99,,2013-06-08 18:42:00,
2013-06-08 14:52:00,71.0,65.0,29.91,South,189,0.0,12.0,80,-99.99,,,-99.99,,2013-06-08 18:52:00,
2013-06-08 15:00:00,74.0,65.0,29.91,WSW,249,5.0,7.0,74,-99.99,,,-99.99,,2013-06-08 19:00:00,
2013-06-08 15:32:00,74.0,65.0,29.91,WSW,249,5.0,7.0,74,-99.99,,,-99.99,,2013-06-08 19:32:00,
2013-06-08 15:42:00,74.0,65.0,29.91,WSW,249,5.0,7.0,74,-99.99,,,-99.99,,2013-06-08 19:42:00,
2013-06-08 15:53:00,74.0,65.0,29.91,WSW,249,5.0,7.0,74,-99.99,,,-99.99,,2013-06-08 19:53:00,
2013-06-08 16:00:00,75.0,64.0,29.91,West,269,5.0,12.0,69,-99.99,,,-99.99,,2013-06-08 20:00:00,
2013-06-08 16:22:00,75.0,64.0,29.91,West,269,5.0,12.0,69,-99.99,,,-99.99,,2013-06-08 20:22:00,
2013-06-08 16:32:00,75.0,64.0,29.91,West,269,5.0,12.0,69,-99.99,,,-99.99,,2013-06-08 20:32:00,
2013-06-08 16:42:00,75.0,64.0,29.91,West,269,5.0,12.0,69,-99.99,,,-99.99,,2013-06-08 20:42:00,
2013-06-08 16:53:00,75.0,64.0,29.91,West,269,5.0,12.0,69,-99.99,,,-99.99,,2013-06-08 20:53:00,
2013-06-08 17:00:00,76.0,65.0,29.94,SW,234,4.0,12.0,69,-99.99,,,-99.99,,2013-06-08 21:00:00,
2013-06-08 17:22:00,76.0,65.0,29.94,SW,234,4.0,12.0,69,-99.99,,,-99.99,,2013-06-08 21:22:00,
2013-06-08 17:33:00,76.0,65.0,29.94,SW,234,4.0,12.0,69,-99.99,,,-99.99,,2013-06-08 21:33:00,
2013-06-08 17:43:00,76.0,65.0,29.94,SW,234,4.0,12.0,69,-99.99,,,-99.99,,2013-06-08 21:43:00,
2013-06-08 17:53:00,76.0,65.0,29.94,SW,234,4.0,12.0,69,-99.99,,,-99.99,,2013-06-08 21:53:00,
2013-06-08 18:00:00,77.0,65.0,29.94,SW,228,9.0,11.0,67,-99.99,,,-99.99,,2013-06-08 22:00:00,
2013-06-08 18:23:00,77.0,65.0,29.94,SW,228,9.0,11.0,67,-99.99,,,-99.99,,2013-06-08 22:23:00,
2013-06-08 18:33:00,77.0,65.0,29.94,SW,228,9.0,11.0,67,-99.99,,,-99.99,,2013-06-08 22:33:00,
2013-06-08 18:43:00,77.0,65.0,29.94,SW,228,9.0,11.0,67,-99.99,,,-99.99,,2013-06-08 22:43:00,
2013-06-08 18:53:00,77.0,65.0,29.94,SW,228,9.0,11.0,67,-99.99,,,-99.99,,2013-06-08 22:53:00,
2013-06-08 19:00:00,76.0,65.0,29.97,WSW,237,7.0,11.0,68,-99.99,,,-99.99,,2013-06-08 23:00:00,
2013-06-08 19:22:00,76.0,65.0,29.97,WSW,237,7.0,11.0,68,-99.99,,,-99.99,,2013-06-08 23:22:00,
2013-06-08 19:32:00,76.0,65.0,29.97,WSW,237,7.0,11.0,68,-99.99,,,-99.99,,2013-06-08 23:32:00,
2013-06-08 19:42:00,76.0,65.0,29.97,WSW,237,7.0,11.0,68,-99.99,,,-99.99,,2013-06-08 23:42:00,
2013-06-08 19:52:00,76.0,65.0,29.97,WSW,237,7.0,11.0,68,-99.99,,,-99.99,,2013-06-08 23:52:00,
2013-06-08 20:00:00,72.0,67.0,29.97,SW,216,0.0,8.0,84,-99.99,,,-99.99,,2013-06-09 00:00:00,
2013-06-08 20:22:00,72.0,67.0,29.97,SW,216,0.0,8.0,84,-99.99,,,-99.99,,2013-06-09 00:22:00,
2013-06-08 20:32:00,72.0,67.0,29.97,SW,216,0.0,8.0,84,-99.99,,,-99.99,,2013-06-09 00:32:00,
2013-06-08 20:42:00,72.0,67.0,29.97,SW,216,0.0,8.0,84,-99.99,,,-99.99,,2013-06-09 00:42:00,
2013-06-08 20:52:00,72.0,67.0,29.97,SW,216,0.0,8.0,84,-99.99,,,-99.99,,2013-06-09 00:52:00,
2013-06-08 21:00:00,68.0,65.0,30.00,SW,225,4.0,5.0,91,-99.99,,,-99.99,,2013-06-09 01:00:00,
2013-06-08 21:22:00,68.0,65.0,30.00,SW,225,4.0,5.0,91,-99.99,,,-99.99,,2013-06-09 01:22:00,
2013-06-08 21:32:00,68.0,65.0,30.00,SW,225,4.0,5.0,91,-99.99,,,-99.99,,2013-06-09 01:32:00,
2013-06-08 21:42:00,68.0,65.0,30.00,SW,225,4.0,5.0,91,-99.99,,,-99.99,,2013-06-09 01:42:00,
2013-06-08 21:52:00,68.0,65.0,30.00,SW,225,4.0,5.0,91,-99.99,,,-99.99,,2013-06-09 01:52:00,
2013-06-08 22:00:00,67.0,65.0,30.03,SW,222,5.0,7.0,91,-99.99,,,-99.99,,2013-06-09 02:00:00,
2013-06-08 22:22:00,67.0,65.0,30.03,SW,222,5.0,7.0,91,-99.99,,,-99.99,,2013-06-09 02:22:00,
2013-06-08 22:32:00,67.0,65.0,30.03,SW,222,5.0,7.0,91,-99.99,,,-99.99,,2013-06-09 02:32:00,
2013-06-08 22:42:00,67.0,65.0,30.03,SW,222,5.0,7.0,91,-99.99,,,-99.99,,2013-06-09 02:42:00,
2013-06-08 22:52:00,67.0,65.0,30.03,SW,222,5.0,7.0,91,-99.99,,,-99.99,,2013-06-09 02:52:00,
2013-06-08 23:00:00,66.0,64.0,30.06,WSW,246,4.0,6.0,93,-99.99,,,-99.99,,2013-06-09 03:00:00,
2013-06-08 23:22:00,66.0,64.0,30.06,WSW,246,4.0,6.0,93,-99.99,,,-99.99,,2013-06-09 03:22:00,
2013-06-08 23:33:00,66.0,64.0,30.06,WSW,246,4.0,6.0,93,-99.99,,,-99.99,,2013-06-09 03:33:00,
2013-06-08 23:43:00,66.0,64.0,30.06,WSW,246,4.0,6.0,93,-99.99,,,-99.99,,2013-06-09 03:43:00,
2013-06-08 23:54:00,66.0,64.0,30.06,WSW,246,4.0,6.0,93,-99.99,,,-99.99,,2013-06-09 03:54:00,